West Elwood, Indiana
Current Conditions -  °F | °C
As of 7:35 PM on Tuesday 25 Nov 2014 (Local Time) from KMZZ Reporting Station
NA  
Wind Chill: 20°   Ceiling: NA
Heat Index: 26°   Visibility: 10mi
Dew Point: 22°   Wind: 6mph
Humidity: 83%   Direction: 320°NW
Pressure: 30.19"   Gusts: NA
Location:  40.3067°N, 85.834°W
Report Text: KMZZ 260035Z AUTO 32005KT 10SM M03/M06 A3019 RMK AO2 T10321057
Loading
Personal Weather Stations






























Interactive Weather Map New forecast layout! Learn more

10-Day Weather Forecast

Advertisements
Track Severe Weather on mobile